createdAt,value
2023-04-08T00:00:19.048Z,6.38
2023-04-08T00:02:46.741Z,9.67
2023-04-08T00:05:13.981Z,5.13
2023-04-08T00:07:41.255Z,10.63
2023-04-08T00:10:09.388Z,8.93
2023-04-08T00:12:36.611Z,7.57
2023-04-08T00:15:04.109Z,9.00
2023-04-08T00:17:31.990Z,13.13
2023-04-08T00:19:59.353Z,11.02
2023-04-08T00:22:26.625Z,6.60
2023-04-08T00:24:53.990Z,6.30
2023-04-08T00:27:21.225Z,8.02
2023-04-08T00:29:48.541Z,5.90
2023-04-08T00:32:15.896Z,10.40
2023-04-08T00:34:43.591Z,8.93
2023-04-08T00:37:10.944Z,10.70
2023-04-08T00:39:38.588Z,11.23
2023-04-08T00:42:06.254Z,8.48
2023-04-08T00:44:33.569Z,5.63
2023-04-08T00:47:01.107Z,8.18
2023-04-08T00:49:28.467Z,7.57
2023-04-08T00:51:56.133Z,5.93
2023-04-08T00:54:23.565Z,7.53
2023-04-08T00:56:51.076Z,9.03
2023-04-08T00:59:18.977Z,7.53
2023-04-08T01:02:06.664Z,4.97
2023-04-08T01:04:47.224Z,6.28
2023-04-08T01:07:23.027Z,6.75
2023-04-08T01:09:56.546Z,9.02
2023-04-08T01:12:30.547Z,9.15
2023-04-08T01:15:06.034Z,7.45
2023-04-08T01:17:36.663Z,7.95
2023-04-08T01:20:06.270Z,10.02
2023-04-08T01:23:11.299Z,7.25
2023-04-08T01:25:39.609Z,8.50
2023-04-08T01:30:43.248Z,7.53
2023-04-08T01:33:17.232Z,9.05
2023-04-08T01:35:45.917Z,13.45
2023-04-08T01:38:18.294Z,11.55
2023-04-08T01:40:48.074Z,8.50
2023-04-08T01:43:17.884Z,11.23
2023-04-08T01:45:47.256Z,7.65
2023-04-08T01:48:16.302Z,10.73
2023-04-08T01:50:45.825Z,13.13
2023-04-08T01:53:14.635Z,11.40
2023-04-08T01:55:43.591Z,13.10
2023-04-08T01:58:22.384Z,9.52
2023-04-08T02:00:51.829Z,7.97
2023-04-08T02:03:21.746Z,7.35
2023-04-08T02:05:49.218Z,9.50
2023-04-08T02:08:16.622Z,8.52
2023-04-08T02:10:43.885Z,6.57
2023-04-08T02:13:11.268Z,10.70
2023-04-08T02:15:45.631Z,10.70
2023-04-08T02:18:27.731Z,11.25
2023-04-08T02:21:13.740Z,10.93
2023-04-08T02:23:44.201Z,10.55
2023-04-08T02:26:16.737Z,12.27
2023-04-08T02:28:44.926Z,9.52
2023-04-08T02:31:16.342Z,16.85
2023-04-08T02:33:46.797Z,13.50
2023-04-08T02:36:15.899Z,13.48
2023-04-08T02:38:48.090Z,8.57
2023-04-08T02:41:17.264Z,8.68
2023-04-08T02:43:44.486Z,8.70
2023-04-08T02:46:12.321Z,8.02
2023-04-08T02:48:39.629Z,11.00
2023-04-08T02:51:06.938Z,9.35
2023-04-08T02:53:34.344Z,9.40
2023-04-08T02:56:01.720Z,12.40
2023-04-08T02:58:30.324Z,8.30
2023-04-08T03:00:57.610Z,9.50
2023-04-08T03:03:29.709Z,9.90
2023-04-08T03:05:58.049Z,7.90
2023-04-08T03:08:26.020Z,8.65
2023-04-08T03:10:53.381Z,9.65
2023-04-08T03:13:20.594Z,10.35
2023-04-08T03:15:47.822Z,10.15
2023-04-08T03:18:15.145Z,12.20
2023-04-08T03:20:42.393Z,8.32
2023-04-08T03:23:09.752Z,9.57
2023-04-08T03:25:36.996Z,9.35
2023-04-08T03:28:04.247Z,14.95
2023-04-08T03:30:32.338Z,7.22
2023-04-08T03:32:59.609Z,9.20
2023-04-08T03:35:26.932Z,12.23
2023-04-08T03:37:55.276Z,9.48
2023-04-08T03:42:49.591Z,9.50
2023-04-08T03:45:16.824Z,9.93
2023-04-08T03:47:44.112Z,7.97
2023-04-08T03:50:11.828Z,11.30
2023-04-08T03:52:39.184Z,9.18
2023-04-08T03:55:06.682Z,8.20
2023-04-08T03:57:33.992Z,10.63
2023-04-08T04:00:01.321Z,6.72
2023-04-08T04:02:29.989Z,11.05
2023-04-08T04:04:57.530Z,12.35
2023-04-08T04:07:24.828Z,18.07
2023-04-08T04:09:54.380Z,15.18
2023-04-08T04:12:21.729Z,11.35
2023-04-08T04:14:49.010Z,17.02
2023-04-08T04:17:16.505Z,10.97
2023-04-08T04:19:43.765Z,6.93
2023-04-08T04:22:11.027Z,15.43
2023-04-08T04:24:38.216Z,11.82
2023-04-08T04:27:05.759Z,12.27
2023-04-08T04:29:33.104Z,10.38
2023-04-08T04:32:00.322Z,11.20
2023-04-08T04:34:27.585Z,8.90
2023-04-08T04:36:54.838Z,12.13
2023-04-08T04:39:22.121Z,9.23
2023-04-08T04:41:49.560Z,12.35
2023-04-08T04:44:17.055Z,11.00
2023-04-08T04:46:44.464Z,15.23
2023-04-08T04:49:11.784Z,11.13
2023-04-08T04:51:39.074Z,10.98
2023-04-08T04:54:06.283Z,17.40
2023-04-08T04:56:33.615Z,10.55
2023-04-08T04:59:00.965Z,11.68
2023-04-08T05:01:29.257Z,15.20
2023-04-08T05:03:56.554Z,11.80
2023-04-08T05:06:24.611Z,15.68
2023-04-08T05:08:52.169Z,12.57
2023-04-08T05:11:19.595Z,9.35
2023-04-08T05:13:46.809Z,14.45
2023-04-08T05:16:14.226Z,11.10
2023-04-08T05:18:41.482Z,10.07
2023-04-08T05:21:09.019Z,11.73
2023-04-08T05:23:36.294Z,17.23
2023-04-08T05:26:03.709Z,12.68
2023-04-08T05:28:30.959Z,7.97
2023-04-08T05:30:58.288Z,10.02
2023-04-08T05:33:26.828Z,7.43
2023-04-08T05:35:54.141Z,7.97
2023-04-08T05:38:21.514Z,11.18
2023-04-08T05:40:48.687Z,13.40
2023-04-08T05:43:15.966Z,14.63
2023-04-08T05:45:43.193Z,13.65
2023-04-08T05:48:10.731Z,12.00
2023-04-08T05:50:38.034Z,11.30
2023-04-08T05:53:05.298Z,15.88
2023-04-08T05:55:32.537Z,19.02
2023-04-08T05:57:59.872Z,13.48
2023-04-08T06:00:27.269Z,7.03
2023-04-08T06:02:54.711Z,11.70
2023-04-08T06:05:22.087Z,7.10
2023-04-08T06:07:49.357Z,11.13
2023-04-08T06:10:16.658Z,9.80
2023-04-08T06:12:43.910Z,10.77
2023-04-08T06:15:11.234Z,17.15
2023-04-08T06:17:39.495Z,10.15
2023-04-08T06:20:07.682Z,11.57
2023-04-08T06:22:38.358Z,9.93
2023-04-08T06:25:07.323Z,14.25
2023-04-08T06:27:34.544Z,10.90
2023-04-08T06:30:01.892Z,16.45
2023-04-08T06:32:31.020Z,11.23
2023-04-08T06:34:58.362Z,10.87
2023-04-08T06:37:25.617Z,10.35
2023-04-08T06:39:52.895Z,6.50
2023-04-08T06:42:21.975Z,7.15
2023-04-08T06:45:14.896Z,14.38
2023-04-08T06:47:42.158Z,14.98
2023-04-08T06:50:10.129Z,24.08
2023-04-08T06:52:37.371Z,18.27
2023-04-08T06:55:05.085Z,13.48
2023-04-08T06:57:32.334Z,18.45
2023-04-08T07:00:00.549Z,15.48
2023-04-08T07:02:28.099Z,14.75
2023-04-08T07:04:55.458Z,18.10
2023-04-08T07:07:24.402Z,18.60
2023-04-08T07:09:52.185Z,19.02
2023-04-08T07:12:19.421Z,9.38
2023-04-08T07:14:46.860Z,10.82
2023-04-08T07:17:14.169Z,11.13
2023-04-08T07:19:41.782Z,16.40
2023-04-08T07:22:09.083Z,19.50
2023-04-08T07:24:36.538Z,10.48
2023-04-08T07:27:03.778Z,9.33
2023-04-08T07:29:31.731Z,18.13
2023-04-08T07:31:59.536Z,10.30
2023-04-08T07:34:26.715Z,16.90
2023-04-08T07:36:54.083Z,15.63
2023-04-08T07:39:21.416Z,21.67
2023-04-08T07:41:48.669Z,19.38
2023-04-08T07:44:17.432Z,20.95
2023-04-08T07:46:46.503Z,12.82
2023-04-08T07:49:13.755Z,17.58
2023-04-08T07:51:41.016Z,10.38
2023-04-08T07:54:08.417Z,14.30
2023-04-08T07:56:35.644Z,13.60
2023-04-08T07:59:02.876Z,9.13
2023-04-08T08:01:31.515Z,15.27
2023-04-08T08:03:59.188Z,39.15
2023-04-08T08:06:27.822Z,11.95
2023-04-08T08:11:22.861Z,10.13
2023-04-08T08:13:50.431Z,13.45
2023-04-08T08:16:17.831Z,15.70
2023-04-08T08:18:45.167Z,17.17
2023-04-08T08:21:12.458Z,12.70
2023-04-08T08:23:39.752Z,13.38
2023-04-08T08:26:10.714Z,10.43
2023-04-08T08:28:39.627Z,9.13
2023-04-08T08:31:07.385Z,11.10
2023-04-08T08:33:34.873Z,5.97
2023-04-08T08:36:02.379Z,10.03
2023-04-08T08:38:29.628Z,16.87
2023-04-08T08:40:58.969Z,9.77
2023-04-08T08:43:27.611Z,7.07
2023-04-08T08:45:55.491Z,6.88
2023-04-08T08:48:22.795Z,10.35
2023-04-08T08:50:50.303Z,5.63
2023-04-08T08:53:17.574Z,5.60
2023-04-08T08:56:13.519Z,7.38
2023-04-08T08:58:32.400Z,12.20
2023-04-08T09:00:59.641Z,8.30
2023-04-08T09:03:28.989Z,9.68
2023-04-08T09:06:00.958Z,7.13
2023-04-08T09:08:38.344Z,7.72
2023-04-08T09:11:18.293Z,12.68
2023-04-08T09:13:54.438Z,7.10
2023-04-08T09:16:30.806Z,4.55
2023-04-08T09:19:10.848Z,8.07
2023-04-08T09:21:41.202Z,7.78
2023-04-08T09:24:10.188Z,14.82
2023-04-08T09:26:38.211Z,8.30
2023-04-08T09:29:25.035Z,9.30
2023-04-08T09:31:58.382Z,10.18
2023-04-08T09:34:27.606Z,14.60
2023-04-08T09:36:56.564Z,23.98
2023-04-08T09:39:24.371Z,7.88
2023-04-08T09:41:52.919Z,11.10
2023-04-08T09:44:26.916Z,9.85
2023-04-08T09:47:10.950Z,7.25
2023-04-08T09:49:55.528Z,10.68
2023-04-08T09:52:34.228Z,12.07
2023-04-08T09:55:09.334Z,7.32
2023-04-08T09:57:42.828Z,10.02
2023-04-08T10:00:20.169Z,7.63
2023-04-08T10:03:25.243Z,6.93
2023-04-08T10:05:54.618Z,5.35
2023-04-08T10:08:24.967Z,8.93
2023-04-08T10:10:52.681Z,5.85
2023-04-08T10:13:20.516Z,17.55
2023-04-08T10:15:49.210Z,8.88
2023-04-08T10:18:30.270Z,6.72
2023-04-08T10:20:57.814Z,5.25
2023-04-08T10:23:56.482Z,12.63
2023-04-08T10:26:40.045Z,8.07
2023-04-08T10:29:19.377Z,13.20
2023-04-08T10:31:47.894Z,9.43
2023-04-08T10:34:25.137Z,6.75
2023-04-08T10:36:55.483Z,10.10
2023-04-08T10:39:23.145Z,8.63
2023-04-08T10:41:51.931Z,4.28
2023-04-08T10:44:20.624Z,12.70
2023-04-08T10:46:49.840Z,13.23
2023-04-08T10:49:18.624Z,15.25
2023-04-08T10:51:47.260Z,8.95
2023-04-08T10:54:17.294Z,7.10
2023-04-08T10:56:53.703Z,7.57
2023-04-08T10:59:35.013Z,19.98
2023-04-08T11:02:03.029Z,6.10
2023-04-08T11:04:30.524Z,5.53
2023-04-08T11:06:58.938Z,6.60
2023-04-08T11:11:54.112Z,6.78
2023-04-08T11:14:22.639Z,17.90
2023-04-08T11:16:50.228Z,7.32
2023-04-08T11:19:18.406Z,9.68
2023-04-08T11:24:13.597Z,8.40
2023-04-08T11:26:42.190Z,12.80
2023-04-08T11:29:16.250Z,14.20
2023-04-08T11:31:44.528Z,9.35
2023-04-08T11:34:12.302Z,9.48
2023-04-08T11:36:41.852Z,6.07
2023-04-08T11:39:12.589Z,7.50
2023-04-08T11:41:43.080Z,8.80
2023-04-08T11:44:10.548Z,6.97
2023-04-08T11:46:38.291Z,13.77
2023-04-08T11:49:08.390Z,13.60
2023-04-08T11:51:55.123Z,7.38
2023-04-08T11:54:32.943Z,4.85
2023-04-08T11:57:00.389Z,7.80
2023-04-08T11:59:29.682Z,5.25
2023-04-08T12:01:57.766Z,5.68
2023-04-08T12:04:25.589Z,5.57
2023-04-08T12:06:53.518Z,7.85
2023-04-08T12:09:20.759Z,6.72
2023-04-08T12:11:48.165Z,11.43
2023-04-08T12:14:15.573Z,5.22
2023-04-08T12:16:43.044Z,13.95
2023-04-08T12:19:10.355Z,25.73
2023-04-08T12:21:38.435Z,11.67
2023-04-08T12:24:06.479Z,13.65
2023-04-08T12:26:33.706Z,6.55
2023-04-08T12:29:01.040Z,7.67
2023-04-08T12:31:28.717Z,7.13
2023-04-08T12:33:56.059Z,15.10
2023-04-08T12:36:23.390Z,19.17
2023-04-08T12:38:50.958Z,5.90
2023-04-08T12:41:18.400Z,12.80
2023-04-08T12:43:45.790Z,6.87
2023-04-08T12:46:13.523Z,6.05
2023-04-08T12:48:40.996Z,7.28
2023-04-08T12:51:10.552Z,12.23
2023-04-08T12:53:38.053Z,6.07
2023-04-08T12:56:05.972Z,7.68
2023-04-08T12:58:33.220Z,9.73
2023-04-08T13:01:00.533Z,4.35
2023-04-08T13:03:30.652Z,10.65
2023-04-08T13:05:59.323Z,10.65
2023-04-08T13:08:26.708Z,10.85
2023-04-08T13:10:55.057Z,11.00
2023-04-08T13:13:22.254Z,8.95
2023-04-08T13:15:49.746Z,5.68
2023-04-08T13:18:17.214Z,12.20
2023-04-08T13:20:44.506Z,12.25
2023-04-08T13:23:12.149Z,7.80
2023-04-08T13:25:39.367Z,26.50
2023-04-08T13:28:06.632Z,15.77
2023-04-08T13:30:33.939Z,10.83
2023-04-08T13:33:01.223Z,10.07
2023-04-08T13:35:28.544Z,8.73
2023-04-08T13:37:56.346Z,9.93
2023-04-08T13:40:24.216Z,11.52
2023-04-08T13:42:51.871Z,7.43
2023-04-08T13:45:20.418Z,10.48
2023-04-08T13:47:47.854Z,8.52
2023-04-08T13:50:15.218Z,8.68
2023-04-08T13:52:42.562Z,9.00
2023-04-08T13:55:09.931Z,5.82
2023-04-08T13:57:37.276Z,7.50
2023-04-08T14:00:05.444Z,9.63
2023-04-08T14:02:38.100Z,8.80
2023-04-08T14:05:06.552Z,10.27
2023-04-08T14:07:33.835Z,10.60
2023-04-08T14:10:01.302Z,6.30
2023-04-08T14:12:28.598Z,9.02
2023-04-08T14:14:55.960Z,8.90
2023-04-08T14:17:23.312Z,10.13
2023-04-08T14:19:51.286Z,8.67
2023-04-08T14:22:19.201Z,12.05
2023-04-08T14:24:46.453Z,10.70
2023-04-08T14:27:13.737Z,6.07
2023-04-08T14:29:40.984Z,8.17
2023-04-08T14:32:08.761Z,7.93
2023-04-08T14:34:35.952Z,5.78
2023-04-08T14:37:04.040Z,14.00
2023-04-08T14:39:31.311Z,6.82
2023-04-08T14:41:58.663Z,12.60
2023-04-08T14:44:26.326Z,7.60
2023-04-08T14:46:53.516Z,9.23
2023-04-08T14:49:20.829Z,11.30
2023-04-08T14:51:48.014Z,7.97
2023-04-08T14:54:16.918Z,12.75
2023-04-08T14:56:44.214Z,17.40
2023-04-08T14:59:11.440Z,14.80
2023-04-08T15:01:38.913Z,14.17
2023-04-08T15:04:06.621Z,10.77
2023-04-08T15:06:39.147Z,7.25
2023-04-08T15:09:06.766Z,18.52
2023-04-08T15:11:34.041Z,18.67
2023-04-08T15:14:01.491Z,19.40
2023-04-08T15:16:28.806Z,24.73
2023-04-08T15:18:56.547Z,23.77
2023-04-08T15:21:23.794Z,16.48
2023-04-08T15:23:51.208Z,18.65
2023-04-08T15:26:18.659Z,16.02
2023-04-08T15:28:46.241Z,17.67
2023-04-08T15:31:13.793Z,28.77
2023-04-08T15:33:43.172Z,20.80
2023-04-08T15:36:10.441Z,21.52
2023-04-08T15:38:38.469Z,15.73
2023-04-08T15:41:05.912Z,20.67
2023-04-08T15:43:33.117Z,32.40
2023-04-08T15:46:00.310Z,41.75
2023-04-08T15:48:27.521Z,30.42
2023-04-08T15:50:54.765Z,41.03
2023-04-08T15:53:22.129Z,19.37
2023-04-08T15:55:50.433Z,16.00
2023-04-08T16:00:44.904Z,22.98
2023-04-08T16:03:13.040Z,15.88
2023-04-08T16:05:41.841Z,14.50
2023-04-08T16:08:09.617Z,16.58
2023-04-08T16:10:37.481Z,37.70
2023-04-08T16:13:10.806Z,24.23
2023-04-08T16:15:38.434Z,23.63
2023-04-08T16:18:06.726Z,19.35
2023-04-08T16:20:38.754Z,13.85
2023-04-08T16:23:06.359Z,30.13
2023-04-08T16:25:33.674Z,26.33
2023-04-08T16:28:01.089Z,18.70
2023-04-08T16:30:28.422Z,21.17
2023-04-08T16:32:55.721Z,25.73
2023-04-08T16:35:23.065Z,29.77
2023-04-08T16:37:50.508Z,26.55
2023-04-08T16:40:17.852Z,24.90
2023-04-08T16:42:45.228Z,21.48
2023-04-08T16:45:12.849Z,27.70
2023-04-08T16:47:41.945Z,24.10
2023-04-08T16:50:09.604Z,24.30
2023-04-08T16:52:37.039Z,38.80
2023-04-08T16:55:05.012Z,27.10
2023-04-08T16:57:32.283Z,27.73
2023-04-08T16:59:59.553Z,21.73
2023-04-08T17:02:27.527Z,25.50
2023-04-08T17:04:54.916Z,31.13
2023-04-08T17:07:22.540Z,35.75
2023-04-08T17:09:52.930Z,35.70
2023-04-08T17:12:21.017Z,30.42
2023-04-08T17:14:48.352Z,33.08
2023-04-08T17:17:15.716Z,26.07
2023-04-08T17:19:43.335Z,32.60
2023-04-08T17:22:10.584Z,20.48
2023-04-08T17:24:38.107Z,23.58
2023-04-08T17:27:05.710Z,25.60
2023-04-08T17:29:33.017Z,29.65
2023-04-08T17:32:00.230Z,26.75
2023-04-08T17:34:27.656Z,32.20
2023-04-08T17:36:55.047Z,24.23
2023-04-08T17:39:22.320Z,46.87
2023-04-08T17:41:49.598Z,38.80
2023-04-08T17:44:17.373Z,31.70
2023-04-08T17:46:44.597Z,24.70
2023-04-08T17:49:12.954Z,31.25
2023-04-08T17:51:40.673Z,33.08
2023-04-08T17:54:07.924Z,30.10
2023-04-08T17:56:35.221Z,41.33
2023-04-08T17:59:02.415Z,34.38
2023-04-08T18:01:29.812Z,40.55
2023-04-08T18:03:57.343Z,30.83
2023-04-08T18:06:24.802Z,35.10
2023-04-08T18:08:52.007Z,35.47
2023-04-08T18:11:19.846Z,42.33
2023-04-08T18:13:48.958Z,39.80
2023-04-08T18:16:20.927Z,33.97
2023-04-08T18:18:49.152Z,33.00
2023-04-08T18:21:19.568Z,35.55
2023-04-08T18:23:49.622Z,40.08
2023-04-08T18:26:17.523Z,32.03
2023-04-08T18:28:44.832Z,36.43
2023-04-08T18:31:12.256Z,30.13
2023-04-08T18:33:39.562Z,28.57
2023-04-08T18:36:10.597Z,25.98
2023-04-08T18:38:40.204Z,31.35
2023-04-08T18:41:08.122Z,34.40
2023-04-08T18:43:35.520Z,34.45
2023-04-08T18:46:03.214Z,35.35
2023-04-08T18:48:30.636Z,40.42
2023-04-08T18:50:57.893Z,33.50
2023-04-08T18:53:25.234Z,26.85
2023-04-08T18:55:52.590Z,29.98
2023-04-08T18:58:19.901Z,25.98
2023-04-08T19:00:47.128Z,20.58
2023-04-08T19:03:14.431Z,34.28
2023-04-08T19:05:41.773Z,22.15
2023-04-08T19:08:09.048Z,26.50
2023-04-08T19:10:36.330Z,24.23
2023-04-08T19:13:03.656Z,25.85
2023-04-08T19:15:32.703Z,20.35
2023-04-08T19:18:00.785Z,23.50
2023-04-08T19:20:28.700Z,21.60
2023-04-08T19:22:56.030Z,23.85
2023-04-08T19:25:23.312Z,19.10
2023-04-08T19:27:50.652Z,18.23
2023-04-08T19:30:18.011Z,22.25
2023-04-08T19:32:46.203Z,18.87
2023-04-08T19:35:13.658Z,18.70
2023-04-08T19:37:42.016Z,21.03
2023-04-08T19:42:37.089Z,20.65
2023-04-08T19:45:05.497Z,24.33
2023-04-08T19:47:33.361Z,20.77
2023-04-08T19:50:00.797Z,26.58
2023-04-08T19:52:28.071Z,22.33
2023-04-08T19:54:55.779Z,17.25
2023-04-08T19:57:23.069Z,22.08
2023-04-08T19:59:53.683Z,20.05
2023-04-08T20:02:22.224Z,17.40
2023-04-08T20:04:49.617Z,19.95
2023-04-08T20:07:16.873Z,26.45
2023-04-08T20:09:44.310Z,21.13
2023-04-08T20:12:11.587Z,21.05
2023-04-08T20:14:43.442Z,27.17
2023-04-08T20:17:11.761Z,27.85
2023-04-08T20:22:06.540Z,27.40
2023-04-08T20:24:33.665Z,22.40
2023-04-08T20:27:01.604Z,20.73
2023-04-08T20:29:29.730Z,22.30
2023-04-08T20:31:57.113Z,20.95
2023-04-08T20:34:24.398Z,37.33
2023-04-08T20:36:52.418Z,23.13
2023-04-08T20:39:19.823Z,26.00
2023-04-08T20:41:47.325Z,23.27
2023-04-08T20:44:14.554Z,28.07
2023-04-08T20:46:42.657Z,20.65
2023-04-08T20:49:09.938Z,14.68
2023-04-08T20:51:37.331Z,21.40
2023-04-08T20:54:05.068Z,19.30
2023-04-08T20:56:32.297Z,15.32
2023-04-08T20:59:00.436Z,27.95
2023-04-08T21:03:56.186Z,14.27
2023-04-08T21:08:51.461Z,14.60
2023-04-08T21:11:19.232Z,15.68
2023-04-08T21:13:48.792Z,19.00
2023-04-08T21:16:16.878Z,19.77
2023-04-08T21:18:44.154Z,15.52
2023-04-08T21:21:11.520Z,17.98
2023-04-08T21:23:38.654Z,14.73
2023-04-08T21:26:13.918Z,12.18
2023-04-08T21:28:41.317Z,11.18
2023-04-08T21:31:13.347Z,16.30
2023-04-08T21:33:40.925Z,13.00
2023-04-08T21:36:08.417Z,13.48
2023-04-08T21:38:36.177Z,12.77
2023-04-08T21:41:03.539Z,17.02
2023-04-08T21:43:30.936Z,11.63
2023-04-08T21:45:58.287Z,15.50
2023-04-08T21:48:25.682Z,11.52
2023-04-08T21:50:53.470Z,11.80
2023-04-08T21:53:22.342Z,9.38
2023-04-08T21:55:49.565Z,13.88
2023-04-08T21:58:17.365Z,16.67
2023-04-08T22:00:45.028Z,9.05
2023-04-08T22:03:12.495Z,9.73
2023-04-08T22:05:39.969Z,7.85
2023-04-08T22:08:07.347Z,11.27
2023-04-08T22:10:34.569Z,9.97
2023-04-08T22:13:01.802Z,8.55
2023-04-08T22:15:29.067Z,10.23
2023-04-08T22:17:56.314Z,8.13
2023-04-08T22:20:23.564Z,8.77
2023-04-08T22:22:50.947Z,7.30
2023-04-08T22:25:19.089Z,9.20
2023-04-08T22:27:46.339Z,9.95
2023-04-08T22:30:13.926Z,12.27
2023-04-08T22:32:41.332Z,10.82
2023-04-08T22:35:09.423Z,12.60
2023-04-08T22:37:36.850Z,10.25
2023-04-08T22:40:04.956Z,11.45
2023-04-08T22:42:32.208Z,15.63
2023-04-08T22:44:59.933Z,13.32
2023-04-08T22:47:27.223Z,9.32
2023-04-08T22:49:54.484Z,11.25
2023-04-08T22:52:21.680Z,14.98
2023-04-08T22:54:48.888Z,14.27
2023-04-08T22:57:16.129Z,10.98
2023-04-08T22:59:43.357Z,9.82
2023-04-08T23:02:10.689Z,16.55
2023-04-08T23:04:37.972Z,10.90
2023-04-08T23:07:05.175Z,12.50
2023-04-08T23:09:32.442Z,11.82
2023-04-08T23:11:59.808Z,9.65
2023-04-08T23:14:27.001Z,12.25
2023-04-08T23:16:54.338Z,8.57
2023-04-08T23:19:21.537Z,12.15
2023-04-08T23:21:48.731Z,16.08
2023-04-08T23:24:16.139Z,19.30
2023-04-08T23:26:43.358Z,11.10
2023-04-08T23:29:10.884Z,10.45
2023-04-08T23:31:38.246Z,11.87
2023-04-08T23:34:05.806Z,11.53
2023-04-08T23:36:33.067Z,16.47
2023-04-08T23:39:00.378Z,19.98
2023-04-08T23:41:27.649Z,22.55
2023-04-08T23:43:54.957Z,16.90
2023-04-08T23:46:22.180Z,12.00
2023-04-08T23:48:49.532Z,23.40
2023-04-08T23:51:17.304Z,18.00
2023-04-08T23:53:44.586Z,18.50
2023-04-08T23:56:11.880Z,19.60
2023-04-08T23:58:39.313Z,12.70
